Time;durP1;ratioP1;P1;durP2;ratioP2;P2;SDS_P1;SDS_P2;PMS_P1;PMS_P2;Temp;Humidity;BMP_temperature;BMP_pressure;BME280_temperature;BME280_humidity;BME280_pressure;Samples;Min_cycle;Max_cycle;Signal;HPM_P1;HPM_P2
2022/09/05 00:09:20;;;;;;;;;;;;;;;;;;21084953;28;20020;-62
2022/09/05 00:19:22;;;;;;;;;;;;;;;;;;21084282;28;19979;-60
2022/09/05 00:29:24;;;;;;;;;;;;;;;;;;21083460;28;19924;-62
2022/09/05 00:39:26;;;;;;;;;;;;;;;;;;21083716;28;20029;-61
2022/09/05 00:49:27;;;;;;;;;;;;;;;;;;21081726;28;19931;-63
2022/09/05 00:59:29;;;;;;;;;;;;;;;;;;21081877;28;19977;-62
2022/09/05 01:09:31;;;;;;;;;;;;;;;;;;21080174;28;19924;-62
2022/09/05 01:19:34;;;;;;;;;;;;;;;;;;21079614;28;19924;-63
2022/09/05 01:29:38;;;;;;;;;;;;;;;;;;21079722;28;20011;-61
2022/09/05 01:39:42;;;;;;;;;;;;;;;;;;21079231;28;19985;-62
2022/09/05 01:49:44;;;;;;;;;;;;;;;;;;21078735;28;19924;-62
2022/09/05 01:59:47;;;;;;;;;;;;;;;;;;21078201;28;19931;-62
2022/09/05 02:09:50;;;;;;;;;;;;;;;;;;21089502;28;19925;-62
2022/09/05 02:19:53;;;;;;;;;;;;;;;;;;21093153;28;20376;-61
2022/09/05 02:29:56;;;;;;;;;;;;;;;;;;21092073;28;19983;-64
2022/09/05 02:40:17;;;;;;;;;;;;;;;;;;21091424;28;19924;-61
2022/09/05 02:50:19;;;;;;;;;;;;;;;;;;21091020;28;19924;-60
2022/09/05 03:00:23;;;;;;;;;;;;;;;;;;21091935;28;19979;-61
2022/09/05 03:10:25;;;;;;;;;;;;;;;;;;21089259;28;19928;-62
2022/09/05 03:20:29;;;;;;;;;;;;;;;;;;21087251;28;19970;-61
2022/09/05 03:30:31;;;;;;;;;;;;;;;;;;21086866;28;20387;-61
2022/09/05 03:40:35;;;;;;;;;;;;;;;;;;21086038;28;19924;-62
2022/09/05 03:50:37;;;;;;;;;;;;;;;;;;21086607;28;20380;-63
2022/09/05 04:00:39;;;;;;;;;;;;;;;;;;21084202;28;19997;-61
2022/09/05 04:10:41;;;;;;;;;;;;;;;;;;21084159;28;20023;-61
2022/09/05 04:20:42;;;;;;;;;;;;;;;;;;21083135;28;19978;-62
2022/09/05 04:30:45;;;;;;;;;;;;;;;;;;21082849;28;19924;-61
2022/09/05 04:40:47;;;;;;;;;;;;;;;;;;21081353;28;19931;-61
2022/09/05 04:50:51;;;;;;;;;;;;;;;;;;21082098;28;19924;-62
2022/09/05 05:00:54;;;;;;;;;;;;;;;;;;21081110;28;19924;-64
2022/09/05 05:10:56;;;;;;;;;;;;;;;;;;21079844;28;20011;-61
2022/09/05 05:20:59;;;;;;;;;;;;;;;;;;21080860;28;19932;-61
2022/09/05 05:31:01;;;;;;;;;;;;;;;;;;21079029;28;19924;-63
2022/09/05 05:41:03;;;;;;;;;;;;;;;;;;21084373;28;20292;-61
2022/09/05 05:51:05;;;;;;;;;;;;;;;;;;21095962;28;19931;-61
2022/09/05 06:01:07;;;;;;;;;;;;;;;;;;21094993;28;20411;-61
2022/09/05 06:11:13;;;;;;;;;;;;;;;;;;21093978;28;20302;-61
2022/09/05 06:21:15;;;;;;;;;;;;;;;;;;21092798;28;19924;-62
2022/09/05 06:31:17;;;;;;;;;;;;;;;;;;21091878;28;20020;-62
2022/09/05 06:41:19;;;;;;;;;;;;;;;;;;21090802;28;19976;-61
2022/09/05 06:51:21;;;;;;;;;;;;;;;;;;21090191;28;19924;-61
2022/09/05 07:01:25;;;;;;;;;;;;;;;;;;21089972;28;19973;-61
2022/09/05 07:11:27;;;;;;;;;;;;;;;;;;21089040;28;20007;-63
2022/09/05 07:21:30;;;;;;;;;;;;;;;;;;21087557;28;20015;-63
2022/09/05 07:31:32;;;;;;;;;;;;;;;;;;21103046;28;20302;-63
2022/09/05 07:41:33;;;;;;;;;;;;;;;;;;21100810;28;19924;-62
2022/09/05 07:51:36;;;;;;;;;;;;;;;;;;21085201;28;19989;-61
2022/09/05 08:01:38;;;;;;;;;;;;;;;;;;21084607;28;20053;-63
2022/09/05 08:11:40;;;;;;;;;;;;;;;;;;21084451;28;19924;-61
2022/09/05 08:21:42;;;;;;;;;;;;;;;;;;21085367;28;19924;-62
2022/09/05 08:31:44;;;;;;;;;;;;;;;;;;21083223;28;20007;-62
2022/09/05 08:41:45;;;;;;;;;;;;;;;;;;21081880;28;19924;-61
2022/09/05 08:51:47;;;;;;;;;;;;;;;;;;21081452;28;19986;-61
2022/09/05 09:01:48;;;;;;;;;;;;;;;;;;21081107;28;20272;-62
2022/09/05 09:11:52;;;;;;;;;;;;;;;;;;21079758;28;20209;-62
2022/09/05 09:21:53;;;;;;;;;;;;;;;;;;21080023;28;19924;-61
2022/09/05 09:31:56;;;;;;;;;;;;;;;;;;21081203;28;19928;-61
2022/09/05 09:41:58;;;;;;;;;;;;;;;;;;21079133;28;19924;-63
2022/09/05 09:52:01;;;;;;;;;;;;;;;;;;21079772;28;20016;-62
2022/09/05 10:02:03;;;;;;;;;;;;;;;;;;21078973;28;19924;-61
2022/09/05 10:12:05;;;;;;;;;;;;;;;;;;21077326;28;19973;-61
2022/09/05 10:22:07;;;;;;;;;;;;;;;;;;21077510;28;19971;-62
2022/09/05 10:32:09;;;;;;;;;;;;;;;;;;21089762;28;20340;-61
2022/09/05 10:42:13;;;;;;;;;;;;;;;;;;21091532;28;19931;-62
2022/09/05 10:52:15;;;;;;;;;;;;;;;;;;21090729;28;19924;-61
2022/09/05 11:02:18;;;;;;;;;;;;;;;;;;21089797;28;19969;-63
2022/09/05 11:12:21;;;;;;;;;;;;;;;;;;21089336;28;20273;-61
2022/09/05 11:22:23;;;;;;;;;;;;;;;;;;21088148;28;19931;-62
2022/09/05 11:32:24;;;;;;;;;;;;;;;;;;21089557;28;20292;-63
2022/09/05 11:42:26;;;;;;;;;;;;;;;;;;21086168;28;20284;-63
2022/09/05 11:52:28;;;;;;;;;;;;;;;;;;21085349;28;19924;-63
2022/09/05 12:02:31;;;;;;;;;;;;;;;;;;21085732;28;20414;-64
2022/09/05 12:12:34;;;;;;;;;;;;;;;;;;21084870;28;20024;-63
2022/09/05 12:22:36;;;;;;;;;;;;;;;;;;21083685;28;19936;-62
2022/09/05 12:32:38;;;;;;;;;;;;;;;;;;21083239;28;20371;-61
2022/09/05 12:42:39;;;;;;;;;;;;;;;;;;21081854;28;19998;-62
2022/09/05 12:52:42;;;;;;;;;;;;;;;;;;21081767;28;19963;-63
2022/09/05 13:02:44;;;;;;;;;;;;;;;;;;21097163;28;20300;-63
2022/09/05 13:12:46;;;;;;;;;;;;;;;;;;21081504;28;19968;-62
2022/09/05 13:22:49;;;;;;;;;;;;;;;;;;21080776;28;19947;-63
2022/09/05 13:32:52;;;;;;;;;;;;;;;;;;21082464;28;19928;-63
2022/09/05 13:42:54;;;;;;;;;;;;;;;;;;21083368;28;20372;-63
2022/09/05 13:52:56;;;;;;;;;;;;;;;;;;21079304;28;19924;-61
2022/09/05 14:02:58;;;;;;;;;;;;;;;;;;21084120;28;19924;-63
2022/09/05 14:13:01;;;;;;;;;;;;;;;;;;21093450;28;19971;-62
2022/09/05 14:23:04;;;;;;;;;;;;;;;;;;21093997;28;19924;-61
2022/09/05 14:33:06;;;;;;;;;;;;;;;;;;21093298;28;19928;-63
2022/09/05 14:43:08;;;;;;;;;;;;;;;;;;21091493;28;19981;-63
2022/09/05 14:53:10;;;;;;;;;;;;;;;;;;21090749;28;20013;-62
2022/09/05 15:03:13;;;;;;;;;;;;;;;;;;21089672;28;20027;-62
2022/09/05 15:13:15;;;;;;;;;;;;;;;;;;21088167;28;19924;-62
2022/09/05 15:23:17;;;;;;;;;;;;;;;;;;21088452;28;19928;-62
2022/09/05 15:33:20;;;;;;;;;;;;;;;;;;21087021;28;19931;-62
2022/09/05 15:43:23;;;;;;;;;;;;;;;;;;21086710;28;20330;-62
2022/09/05 15:53:25;;;;;;;;;;;;;;;;;;21086357;28;19932;-61
2022/09/05 16:03:27;;;;;;;;;;;;;;;;;;21085710;28;20280;-62
2022/09/05 16:13:29;;;;;;;;;;;;;;;;;;21085502;28;20355;-61
2022/09/05 16:23:31;;;;;;;;;;;;;;;;;;21083393;28;19931;-62
2022/09/05 16:33:33;;;;;;;;;;;;;;;;;;21083090;28;19924;-61
2022/09/05 16:43:34;;;;;;;;;;;;;;;;;;21097391;28;19935;-62
2022/09/05 16:53:36;;;;;;;;;;;;;;;;;;21080531;28;19928;-61
2022/09/05 17:03:38;;;;;;;;;;;;;;;;;;21080221;28;19928;-63
2022/09/05 17:13:40;;;;;;;;;;;;;;;;;;21080889;28;20304;-62
2022/09/05 17:23:43;;;;;;;;;;;;;;;;;;21081530;28;19974;-62
2022/09/05 17:33:45;;;;;;;;;;;;;;;;;;21085798;28;20031;-61
2022/09/05 17:43:47;;;;;;;;;;;;;;;;;;21097220;28;20018;-62
2022/09/05 17:53:49;;;;;;;;;;;;;;;;;;21097090;28;19924;-62
2022/09/05 18:03:51;;;;;;;;;;;;;;;;;;21097408;28;19924;-63
2022/09/05 18:13:53;;;;;;;;;;;;;;;;;;21095682;28;19924;-61
2022/09/05 18:23:56;;;;;;;;;;;;;;;;;;21093606;28;19981;-62
2022/09/05 18:33:57;;;;;;;;;;;;;;;;;;21092977;28;19955;-61
2022/09/05 18:43:59;;;;;;;;;;;;;;;;;;21094077;28;19924;-63
2022/09/05 18:54:02;;;;;;;;;;;;;;;;;;21093355;28;19928;-62
2022/09/05 19:04:04;;;;;;;;;;;;;;;;;;21092542;28;19924;-64
2022/09/05 19:14:06;;;;;;;;;;;;;;;;;;21090950;28;20087;-61
2022/09/05 19:24:08;;;;;;;;;;;;;;;;;;21091368;28;20342;-61
2022/09/05 19:34:10;;;;;;;;;;;;;;;;;;21091893;28;20396;-61
2022/09/05 19:44:12;;;;;;;;;;;;;;;;;;21088770;28;20287;-63
2022/09/05 19:54:14;;;;;;;;;;;;;;;;;;21086611;28;19931;-61
2022/09/05 20:04:18;;;;;;;;;;;;;;;;;;21085137;28;19947;-61
2022/09/05 20:14:20;;;;;;;;;;;;;;;;;;21084853;28;20002;-63
2022/09/05 20:24:22;;;;;;;;;;;;;;;;;;21084084;28;19924;-62
2022/09/05 20:34:24;;;;;;;;;;;;;;;;;;21082270;28;20237;-61
2022/09/05 20:44:26;;;;;;;;;;;;;;;;;;21081889;28;19924;-62
2022/09/05 20:54:28;;;;;;;;;;;;;;;;;;21082220;28;20406;-63
2022/09/05 21:04:31;;;;;;;;;;;;;;;;;;21080461;28;19930;-62
2022/09/05 21:14:34;;;;;;;;;;;;;;;;;;21079937;28;19924;-62
2022/09/05 21:24:36;;;;;;;;;;;;;;;;;;21080498;28;19924;-63
2022/09/05 21:34:39;;;;;;;;;;;;;;;;;;21079803;28;19969;-61
2022/09/05 21:44:42;;;;;;;;;;;;;;;;;;21079957;28;19931;-61
2022/09/05 21:54:45;;;;;;;;;;;;;;;;;;21078726;28;19954;-61
2022/09/05 22:04:52;;;;;;;;;;;;;;;;;;21080806;28;19924;-63
2022/09/05 22:14:54;;;;;;;;;;;;;;;;;;21078549;28;19931;-62
2022/09/05 22:24:57;;;;;;;;;;;;;;;;;;21087057;28;20015;-63
2022/09/05 22:34:59;;;;;;;;;;;;;;;;;;21093126;28;19924;-60
2022/09/05 22:45:01;;;;;;;;;;;;;;;;;;21093145;28;19924;-63
2022/09/05 22:55:03;;;;;;;;;;;;;;;;;;21090994;28;19971;-63
2022/09/05 23:05:05;;;;;;;;;;;;;;;;;;21090740;28;19924;-62
2022/09/05 23:15:07;;;;;;;;;;;;;;;;;;21089994;28;19928;-62
2022/09/05 23:25:09;;;;;;;;;;;;;;;;;;21089857;28;19971;-63
2022/09/05 23:35:11;;;;;;;;;;;;;;;;;;21086702;28;19924;-63
2022/09/05 23:45:13;;;;;;;;;;;;;;;;;;21089200;28;19970;-62
2022/09/05 23:55:14;;;;;;;;;;;;;;;;;;21086614;28;19923;-63
